createdAt,value
2018-09-18T00:00:20.799Z,70.78
2018-09-18T00:02:49.711Z,71.66
2018-09-18T00:05:18.615Z,71.98
2018-09-18T00:07:47.354Z,71.51
2018-09-18T00:10:16.011Z,70.53
2018-09-18T00:12:44.655Z,71.88
2018-09-18T00:15:13.886Z,71.09
2018-09-18T00:17:42.558Z,70.71
2018-09-18T00:20:11.404Z,71.38
2018-09-18T00:22:40.667Z,71.33
2018-09-18T00:25:09.443Z,71.52
2018-09-18T00:27:38.222Z,72.42
2018-09-18T00:30:07.240Z,72.69
2018-09-18T00:32:36.005Z,72.80
2018-09-18T00:35:05.020Z,73.25
2018-09-18T00:37:34.022Z,72.31
2018-09-18T00:40:02.678Z,72.70
2018-09-18T00:42:31.555Z,73.20
2018-09-18T00:45:00.382Z,73.11
2018-09-18T00:47:29.163Z,73.80
2018-09-18T00:49:58.153Z,73.60
2018-09-18T00:52:26.869Z,72.84
2018-09-18T00:54:55.722Z,72.47
2018-09-18T00:57:24.758Z,72.18
2018-09-18T00:59:53.542Z,72.40
2018-09-18T01:02:22.315Z,72.39
2018-09-18T01:04:51.142Z,72.54
2018-09-18T01:07:19.998Z,72.68
2018-09-18T01:09:48.646Z,73.01
2018-09-18T01:12:17.654Z,73.23
2018-09-18T01:14:47.051Z,72.82
2018-09-18T01:17:15.759Z,73.09
2018-09-18T01:19:44.470Z,73.78
2018-09-18T01:22:13.412Z,73.19
2018-09-18T01:24:41.994Z,72.53
2018-09-18T01:27:11.098Z,72.43
2018-09-18T01:29:40.270Z,72.45
2018-09-18T01:32:08.938Z,73.33
2018-09-18T01:34:37.932Z,73.19
2018-09-18T01:37:06.750Z,73.09
2018-09-18T01:39:35.836Z,72.71
2018-09-18T01:42:04.454Z,72.70
2018-09-18T01:44:33.497Z,72.13
2018-09-18T01:47:02.494Z,73.07
2018-09-18T01:49:31.519Z,73.28
2018-09-18T01:52:00.867Z,74.68
2018-09-18T01:54:29.591Z,74.70
2018-09-18T01:56:58.490Z,74.23
2018-09-18T01:59:27.626Z,73.74
2018-09-18T02:01:56.371Z,73.92
2018-09-18T02:04:25.128Z,74.56
2018-09-18T02:06:54.243Z,74.88
2018-09-18T02:09:22.898Z,76.05
2018-09-18T02:11:51.783Z,75.91
2018-09-18T02:14:20.699Z,76.49
2018-09-18T02:16:49.795Z,76.04
2018-09-18T02:19:18.721Z,75.46
2018-09-18T02:21:47.454Z,76.44
2018-09-18T02:24:16.267Z,75.89
2018-09-18T02:26:45.048Z,75.89
2018-09-18T02:29:14.066Z,76.66
2018-09-18T02:31:42.650Z,76.79
2018-09-18T02:34:11.358Z,76.18
2018-09-18T02:36:40.283Z,74.96
2018-09-18T02:39:11.466Z,76.10
2018-09-18T02:41:40.225Z,77.95
2018-09-18T02:44:09.500Z,77.99
2018-09-18T02:46:38.549Z,77.37
2018-09-18T02:49:07.750Z,77.51
2018-09-18T02:51:36.975Z,77.37
2018-09-18T02:54:05.861Z,77.68
2018-09-18T02:56:34.758Z,78.33
2018-09-18T02:59:04.296Z,77.83
2018-09-18T03:01:33.244Z,77.78
2018-09-18T03:04:01.834Z,77.88
2018-09-18T03:06:30.488Z,77.38
2018-09-18T03:08:59.129Z,77.34
2018-09-18T03:11:27.755Z,76.80
2018-09-18T03:13:56.682Z,76.02
2018-09-18T03:16:25.647Z,76.34
2018-09-18T03:18:54.274Z,76.50
2018-09-18T03:21:23.059Z,76.14
2018-09-18T03:23:51.668Z,77.09
2018-09-18T03:26:20.590Z,76.56
2018-09-18T03:28:49.593Z,77.08
2018-09-18T03:31:18.312Z,76.32
2018-09-18T03:33:47.458Z,76.87
2018-09-18T03:36:16.922Z,76.61
2018-09-18T03:38:45.847Z,77.22
2018-09-18T03:41:14.722Z,76.74
2018-09-18T03:43:43.674Z,76.54
2018-09-18T03:46:12.424Z,75.80
2018-09-18T03:48:41.477Z,76.15
2018-09-18T03:51:11.026Z,77.15
2018-09-18T03:53:40.080Z,76.85
2018-09-18T03:56:09.103Z,77.29
2018-09-18T03:58:38.454Z,76.69
2018-09-18T04:01:07.332Z,77.48
2018-09-18T04:03:35.904Z,77.69
2018-09-18T04:06:05.350Z,76.75
2018-09-18T04:08:33.971Z,77.49
2018-09-18T04:11:02.802Z,77.16
2018-09-18T04:13:32.166Z,77.82
2018-09-18T04:16:00.854Z,78.07
2018-09-18T04:18:30.021Z,78.17
2018-09-18T04:20:59.134Z,77.19
2018-09-18T04:23:28.005Z,77.12
2018-09-18T04:25:56.792Z,77.94
2018-09-18T04:28:25.755Z,77.82
2018-09-18T04:30:54.782Z,77.29
2018-09-18T04:33:23.992Z,76.70
2018-09-18T04:35:53.192Z,76.47
2018-09-18T04:38:21.972Z,76.10
2018-09-18T04:40:50.980Z,76.10
2018-09-18T04:43:20.186Z,75.66
2018-09-18T04:45:49.246Z,75.10
2018-09-18T04:48:17.822Z,74.60
2018-09-18T04:50:46.950Z,74.66
2018-09-18T04:53:15.940Z,74.96
2018-09-18T04:55:44.634Z,74.62
2018-09-18T04:58:13.837Z,74.84
2018-09-18T05:00:42.960Z,74.09
2018-09-18T05:03:12.186Z,73.89
2018-09-18T05:05:41.291Z,73.92
2018-09-18T05:08:10.148Z,73.09
2018-09-18T05:10:39.111Z,72.74
2018-09-18T05:13:08.540Z,72.73
2018-09-18T05:15:37.310Z,71.98
2018-09-18T05:18:05.987Z,70.92
2018-09-18T05:20:35.380Z,69.28
2018-09-18T05:23:04.482Z,68.10
2018-09-18T05:25:33.399Z,68.36
2018-09-18T05:28:02.214Z,68.22
2018-09-18T05:30:31.018Z,67.49
2018-09-18T05:33:00.387Z,66.78
2018-09-18T05:35:29.282Z,66.56
2018-09-18T05:37:58.287Z,65.54
2018-09-18T05:40:27.170Z,64.87
2018-09-18T05:42:56.524Z,64.83
2018-09-18T05:45:25.461Z,64.84
2018-09-18T05:47:54.219Z,64.84
2018-09-18T05:50:22.844Z,64.70
2018-09-18T05:52:51.666Z,64.41
2018-09-18T05:55:20.891Z,64.17
2018-09-18T05:57:49.832Z,64.10
2018-09-18T06:00:18.974Z,63.95
2018-09-18T06:02:47.910Z,63.61
2018-09-18T06:05:17.023Z,63.59
2018-09-18T06:07:45.750Z,63.36
2018-09-18T06:10:14.877Z,63.15
2018-09-18T06:12:45.789Z,62.93
2018-09-18T06:15:14.845Z,62.93
2018-09-18T06:17:43.476Z,63.06
2018-09-18T06:20:12.245Z,62.61
2018-09-18T06:22:40.859Z,61.97
2018-09-18T06:25:10.475Z,61.74
2018-09-18T06:27:39.214Z,62.07
2018-09-18T06:30:08.738Z,61.92
2018-09-18T06:32:37.866Z,62.10
2018-09-18T06:35:07.219Z,61.21
2018-09-18T06:37:36.539Z,60.70
2018-09-18T06:40:06.056Z,60.72
2018-09-18T06:42:35.254Z,60.53
2018-09-18T06:45:04.860Z,59.98
2018-09-18T06:47:33.856Z,60.08
2018-09-18T06:50:02.584Z,59.86
2018-09-18T06:52:31.346Z,59.80
2018-09-18T06:55:00.156Z,59.06
2018-09-18T06:57:28.959Z,58.35
2018-09-18T06:59:58.379Z,57.75
2018-09-18T07:02:27.622Z,56.88
2018-09-18T07:04:56.373Z,55.89
2018-09-18T07:07:25.455Z,56.23
2018-09-18T07:09:54.326Z,56.23
2018-09-18T07:12:23.744Z,56.23
2018-09-18T07:14:52.957Z,54.40
2018-09-18T07:17:21.701Z,54.45
2018-09-18T07:19:50.507Z,53.87
2018-09-18T07:22:19.738Z,53.27
2018-09-18T07:24:49.435Z,52.83
2018-09-18T07:27:18.135Z,51.83
2018-09-18T07:29:47.763Z,51.63
2018-09-18T07:32:16.638Z,50.55
2018-09-18T07:34:45.319Z,50.42
2018-09-18T07:37:14.336Z,49.91
2018-09-18T07:39:43.201Z,49.64
2018-09-18T07:42:12.001Z,49.40
2018-09-18T07:44:41.063Z,49.64
2018-09-18T07:47:09.827Z,48.43
2018-09-18T07:49:38.920Z,46.74
2018-09-18T07:52:08.112Z,46.69
2018-09-18T07:54:37.000Z,47.32
2018-09-18T07:57:05.618Z,47.61
2018-09-18T07:59:34.956Z,47.77
2018-09-18T08:02:03.559Z,47.13
2018-09-18T08:04:32.428Z,46.28
2018-09-18T08:07:01.343Z,46.96
2018-09-18T08:09:30.488Z,46.56
2018-09-18T08:11:59.556Z,45.23
2018-09-18T08:14:28.745Z,44.68
2018-09-18T08:16:57.575Z,45.31
2018-09-18T08:19:26.414Z,45.57
2018-09-18T08:21:55.779Z,46.05
2018-09-18T08:24:24.858Z,45.05
2018-09-18T08:26:53.518Z,43.47
2018-09-18T08:29:22.518Z,43.73
2018-09-18T08:31:52.363Z,44.21
2018-09-18T08:34:21.266Z,43.73
2018-09-18T08:36:50.426Z,43.36
2018-09-18T08:39:19.500Z,42.31
2018-09-18T08:41:48.305Z,41.93
2018-09-18T08:44:17.589Z,41.74
2018-09-18T08:46:46.647Z,41.41
2018-09-18T08:49:15.698Z,41.18
2018-09-18T08:51:45.032Z,41.45
2018-09-18T08:54:13.896Z,41.31
2018-09-18T08:56:42.880Z,40.47
2018-09-18T08:59:11.908Z,40.66
2018-09-18T09:01:40.727Z,39.88
2018-09-18T09:04:09.495Z,39.42
2018-09-18T09:06:38.662Z,39.10
2018-09-18T09:09:14.541Z,38.87
2018-09-18T09:11:44.750Z,39.26
2018-09-18T09:14:14.124Z,38.54
2018-09-18T09:16:43.223Z,37.65
2018-09-18T09:19:12.552Z,38.06
2018-09-18T09:21:41.425Z,37.73
2018-09-18T09:24:10.284Z,36.60
2018-09-18T09:26:39.448Z,37.26
2018-09-18T09:29:08.020Z,36.61
2018-09-18T09:31:36.756Z,36.95
2018-09-18T09:34:05.717Z,36.05
2018-09-18T09:36:34.379Z,36.91
2018-09-18T09:39:03.172Z,34.53
2018-09-18T09:41:32.045Z,35.65
2018-09-18T09:44:00.802Z,35.46
2018-09-18T09:46:29.839Z,33.57
2018-09-18T09:48:59.216Z,32.70
2018-09-18T09:51:28.420Z,33.13
2018-09-18T09:53:57.403Z,33.23
2018-09-18T09:56:26.913Z,33.69
2018-09-18T09:58:55.719Z,34.05
2018-09-18T10:01:30.208Z,32.24
2018-09-18T10:03:59.039Z,31.47
2018-09-18T10:06:27.995Z,31.17
2018-09-18T10:08:56.926Z,30.90
2018-09-18T10:11:25.743Z,31.21
2018-09-18T10:13:54.839Z,30.90
2018-09-18T10:16:24.362Z,29.98
2018-09-18T10:18:53.460Z,28.65
2018-09-18T10:21:22.288Z,28.94
2018-09-18T10:23:51.247Z,28.19
2018-09-18T10:26:20.302Z,27.75
2018-09-18T10:28:49.411Z,28.85
2018-09-18T10:31:18.784Z,27.37
2018-09-18T10:33:47.788Z,27.42
2018-09-18T10:36:16.458Z,26.84
2018-09-18T10:38:45.346Z,27.01
2018-09-18T10:41:14.464Z,26.04
2018-09-18T10:43:43.287Z,25.96
2018-09-18T10:46:12.130Z,24.39
2018-09-18T10:48:46.408Z,25.03
2018-09-18T10:51:16.015Z,24.54
2018-09-18T10:53:44.791Z,24.48
2018-09-18T10:56:13.888Z,25.31
2018-09-18T10:58:43.792Z,24.47
2018-09-18T11:01:12.691Z,23.10
2018-09-18T11:03:41.503Z,22.33
2018-09-18T11:06:10.839Z,23.54
2018-09-18T11:08:39.501Z,23.39
2018-09-18T11:11:08.141Z,23.26
2018-09-18T11:13:37.405Z,23.86
2018-09-18T11:16:06.513Z,22.58
2018-09-18T11:18:35.613Z,22.53
2018-09-18T11:21:04.718Z,21.44
2018-09-18T11:23:33.843Z,19.76
2018-09-18T11:26:02.643Z,20.21
2018-09-18T11:28:31.971Z,21.07
2018-09-18T11:31:00.537Z,22.00
2018-09-18T11:33:29.848Z,20.77
2018-09-18T11:35:59.127Z,20.49
2018-09-18T11:38:27.785Z,20.34
2018-09-18T11:40:56.492Z,19.85
2018-09-18T11:43:25.454Z,20.11
2018-09-18T11:45:54.631Z,20.29
2018-09-18T11:48:23.163Z,20.27
2018-09-18T11:50:52.083Z,19.90
2018-09-18T11:53:20.786Z,20.13
2018-09-18T11:55:49.602Z,20.26
2018-09-18T11:58:18.723Z,19.50
2018-09-18T12:00:47.560Z,19.42
2018-09-18T12:03:16.528Z,19.86
2018-09-18T12:05:45.738Z,18.96
2018-09-18T12:08:14.867Z,19.56
2018-09-18T12:10:43.615Z,19.76
2018-09-18T12:13:12.689Z,19.64
2018-09-18T12:15:41.331Z,18.98
2018-09-18T12:18:10.285Z,18.12
2018-09-18T12:20:39.556Z,18.52
2018-09-18T12:23:08.482Z,18.45
2018-09-18T12:25:37.571Z,17.31
2018-09-18T12:28:06.396Z,16.60
2018-09-18T12:30:35.559Z,17.58
2018-09-18T12:33:04.554Z,17.45
2018-09-18T12:35:33.565Z,17.04
2018-09-18T12:38:02.644Z,17.53
2018-09-18T12:40:31.731Z,17.19
2018-09-18T12:43:00.449Z,16.80
2018-09-18T12:45:29.512Z,16.63
2018-09-18T12:47:58.211Z,17.20
2018-09-18T12:50:27.252Z,16.71
2018-09-18T12:52:56.091Z,17.17
2018-09-18T12:55:25.234Z,17.29
2018-09-18T12:57:54.153Z,16.39
2018-09-18T13:00:23.343Z,17.08
2018-09-18T13:02:52.342Z,17.49
2018-09-18T13:05:21.411Z,17.46
2018-09-18T13:07:50.737Z,17.18
2018-09-18T13:10:19.535Z,16.72
2018-09-18T13:12:48.605Z,16.00
2018-09-18T13:15:17.396Z,15.84
2018-09-18T13:17:46.110Z,15.43
2018-09-18T13:20:14.847Z,14.94
2018-09-18T13:22:44.166Z,14.63
2018-09-18T13:25:13.034Z,14.07
2018-09-18T13:27:41.868Z,13.67
2018-09-18T13:30:11.423Z,13.88
2018-09-18T13:32:40.629Z,13.62
2018-09-18T13:35:09.537Z,14.52
2018-09-18T13:37:38.716Z,14.25
2018-09-18T13:40:07.793Z,14.58
2018-09-18T13:42:36.531Z,13.18
2018-09-18T13:45:05.473Z,13.50
2018-09-18T13:47:34.159Z,13.19
2018-09-18T13:50:02.829Z,13.36
2018-09-18T13:52:31.720Z,12.88
2018-09-18T13:55:00.740Z,12.98
2018-09-18T13:57:29.542Z,12.60
2018-09-18T13:59:58.971Z,12.33
2018-09-18T14:02:28.647Z,12.91
2018-09-18T14:04:57.573Z,13.05
2018-09-18T14:07:26.667Z,12.90
2018-09-18T14:09:55.712Z,13.03
2018-09-18T14:12:24.494Z,12.64
2018-09-18T14:14:53.666Z,12.80
2018-09-18T14:17:22.202Z,12.87
2018-09-18T14:19:50.932Z,13.31
2018-09-18T14:22:20.179Z,13.34
2018-09-18T14:24:49.271Z,13.15
2018-09-18T14:27:18.462Z,12.94
2018-09-18T14:29:47.510Z,13.02
2018-09-18T14:32:16.672Z,13.06
2018-09-18T14:34:45.536Z,12.82
2018-09-18T14:37:14.709Z,12.60
2018-09-18T14:39:44.153Z,13.48
2018-09-18T14:42:13.076Z,14.14
2018-09-18T14:44:42.067Z,14.06
2018-09-18T14:47:10.700Z,14.39
2018-09-18T14:49:39.719Z,14.89
2018-09-18T14:52:08.705Z,15.54
2018-09-18T14:54:37.551Z,15.07
2018-09-18T14:57:06.451Z,14.49
2018-09-18T14:59:35.675Z,14.35
2018-09-18T15:02:04.651Z,14.19
2018-09-18T15:04:33.662Z,14.70
2018-09-18T15:07:02.927Z,14.86
2018-09-18T15:09:31.712Z,14.94
2018-09-18T15:12:00.469Z,15.01
2018-09-18T15:14:29.108Z,14.48
2018-09-18T15:16:57.736Z,15.23
2018-09-18T15:19:26.455Z,15.55
2018-09-18T15:21:55.473Z,15.17
2018-09-18T15:24:24.183Z,15.54
2018-09-18T15:26:52.958Z,15.98
2018-09-18T15:29:22.031Z,16.05
2018-09-18T15:31:50.858Z,16.37
2018-09-18T15:34:19.967Z,17.40
2018-09-18T15:36:49.049Z,16.62
2018-09-18T15:39:17.824Z,17.32
2018-09-18T15:41:46.894Z,17.47
2018-09-18T15:44:15.638Z,17.48
2018-09-18T15:46:44.409Z,19.18
2018-09-18T15:49:13.066Z,18.45
2018-09-18T15:51:41.875Z,19.31
2018-09-18T15:54:10.724Z,19.44
2018-09-18T15:56:39.809Z,20.07
2018-09-18T15:59:08.574Z,19.92
2018-09-18T16:01:37.459Z,19.95
2018-09-18T16:04:06.504Z,20.77
2018-09-18T16:06:35.651Z,21.57
2018-09-18T16:09:05.557Z,21.53
2018-09-18T16:11:34.655Z,21.76
2018-09-18T16:14:03.554Z,22.08
2018-09-18T16:16:32.251Z,23.21
2018-09-18T16:19:00.955Z,23.14
2018-09-18T16:21:29.809Z,23.80
2018-09-18T16:23:59.093Z,24.64
2018-09-18T16:26:27.904Z,24.80
2018-09-18T16:28:56.908Z,26.35
2018-09-18T16:31:26.082Z,26.53
2018-09-18T16:33:55.035Z,26.97
2018-09-18T16:36:23.991Z,27.97
2018-09-18T16:38:52.880Z,29.37
2018-09-18T16:41:22.113Z,29.28
2018-09-18T16:43:51.170Z,30.17
2018-09-18T16:46:20.007Z,31.43
2018-09-18T16:48:48.685Z,31.72
2018-09-18T16:51:17.367Z,32.51
2018-09-18T16:53:46.380Z,32.25
2018-09-18T16:56:15.262Z,33.22
2018-09-18T16:58:44.300Z,33.76
2018-09-18T17:01:12.989Z,33.97
2018-09-18T17:03:41.919Z,35.17
2018-09-18T17:06:10.810Z,35.21
2018-09-18T17:08:39.600Z,36.32
2018-09-18T17:11:08.587Z,37.15
2018-09-18T17:13:37.525Z,36.94
2018-09-18T17:16:06.379Z,37.60
2018-09-18T17:18:35.369Z,37.78
2018-09-18T17:21:04.174Z,38.19
2018-09-18T17:23:33.067Z,38.80
2018-09-18T17:26:02.104Z,38.43
2018-09-18T17:28:31.183Z,39.56
2018-09-18T17:30:59.921Z,40.01
2018-09-18T17:33:28.885Z,40.09
2018-09-18T17:35:57.595Z,39.99
2018-09-18T17:38:26.452Z,40.46
2018-09-18T17:40:55.716Z,40.36
2018-09-18T17:43:24.369Z,41.09
2018-09-18T17:45:53.406Z,41.22
2018-09-18T17:48:22.332Z,41.31
2018-09-18T17:50:51.078Z,40.90
2018-09-18T17:53:19.973Z,41.59
2018-09-18T17:55:49.015Z,41.16
2018-09-18T17:58:17.919Z,41.40
2018-09-18T18:00:46.793Z,42.66
2018-09-18T18:03:16.000Z,41.93
2018-09-18T18:05:45.115Z,42.59
2018-09-18T18:08:13.979Z,42.66
2018-09-18T18:10:43.031Z,42.51
2018-09-18T18:13:11.820Z,43.26
2018-09-18T18:15:40.848Z,42.99
2018-09-18T18:18:09.570Z,42.37
2018-09-18T18:20:38.377Z,43.76
2018-09-18T18:23:07.276Z,43.19
2018-09-18T18:25:36.472Z,44.25
2018-09-18T18:28:05.442Z,43.86
2018-09-18T18:30:34.282Z,44.33
2018-09-18T18:33:03.306Z,44.59
2018-09-18T18:35:32.316Z,43.94
2018-09-18T18:38:01.253Z,44.09
2018-09-18T18:40:30.522Z,44.01
2018-09-18T18:42:59.361Z,44.65
2018-09-18T18:45:28.647Z,44.46
2018-09-18T18:47:57.460Z,44.93
2018-09-18T18:50:26.094Z,44.95
2018-09-18T18:52:54.869Z,44.94
2018-09-18T18:55:23.968Z,45.73
2018-09-18T18:57:52.844Z,45.12
2018-09-18T19:00:21.506Z,45.31
2018-09-18T19:02:50.512Z,45.34
2018-09-18T19:05:19.322Z,46.12
2018-09-18T19:07:48.471Z,46.08
2018-09-18T19:10:17.422Z,45.28
2018-09-18T19:12:46.735Z,45.75
2018-09-18T19:15:15.813Z,45.92
2018-09-18T19:17:44.605Z,45.94
2018-09-18T19:20:13.778Z,45.57
2018-09-18T19:22:42.845Z,46.12
2018-09-18T19:25:11.744Z,46.27
2018-09-18T19:27:40.828Z,46.21
2018-09-18T19:30:09.709Z,46.53
2018-09-18T19:32:38.877Z,47.05
2018-09-18T19:35:08.116Z,47.34
2018-09-18T19:37:36.958Z,47.62
2018-09-18T19:40:05.885Z,47.52
2018-09-18T19:42:34.975Z,47.70
2018-09-18T19:45:03.819Z,48.11
2018-09-18T19:47:32.602Z,48.24
2018-09-18T19:50:01.373Z,48.53
2018-09-18T19:52:30.051Z,48.73
2018-09-18T19:54:59.148Z,49.02
2018-09-18T19:57:28.036Z,49.22
2018-09-18T19:59:56.989Z,48.97
2018-09-18T20:02:26.028Z,48.87
2018-09-18T20:04:55.079Z,49.41
2018-09-18T20:07:23.806Z,49.26
2018-09-18T20:09:52.661Z,49.40
2018-09-18T20:12:21.434Z,49.81
2018-09-18T20:14:50.171Z,49.75
2018-09-18T20:17:18.894Z,49.84
2018-09-18T20:19:47.529Z,50.14
2018-09-18T20:22:16.147Z,50.56
2018-09-18T20:24:45.151Z,50.68
2018-09-18T20:27:14.530Z,50.92
2018-09-18T20:29:43.467Z,51.39
2018-09-18T20:32:12.536Z,51.01
2018-09-18T20:34:41.693Z,51.61
2018-09-18T20:37:10.762Z,52.51
2018-09-18T20:39:39.741Z,53.31
2018-09-18T20:42:08.872Z,54.91
2018-09-18T20:44:37.736Z,54.76
2018-09-18T20:47:07.085Z,54.17
2018-09-18T20:49:35.800Z,54.50
2018-09-18T20:52:04.647Z,55.37
2018-09-18T20:54:33.583Z,55.59
2018-09-18T20:57:02.366Z,56.24
2018-09-18T20:59:31.550Z,57.35
2018-09-18T21:02:00.401Z,58.11
2018-09-18T21:04:29.419Z,58.09
2018-09-18T21:06:58.326Z,58.04
2018-09-18T21:09:27.180Z,58.70
2018-09-18T21:11:56.149Z,59.01
2018-09-18T21:14:25.193Z,58.74
2018-09-18T21:16:53.901Z,58.88
2018-09-18T21:19:22.516Z,60.06
2018-09-18T21:21:51.273Z,60.83
2018-09-18T21:24:20.050Z,60.71
2018-09-18T21:26:48.942Z,60.50
2018-09-18T21:29:17.734Z,60.42
2018-09-18T21:31:47.707Z,60.47
2018-09-18T21:34:16.643Z,60.23
2018-09-18T21:36:45.286Z,60.41
2018-09-18T21:39:14.208Z,60.97
2018-09-18T21:41:43.206Z,60.04
2018-09-18T21:44:12.319Z,60.35
2018-09-18T21:46:41.398Z,60.27
2018-09-18T21:49:10.298Z,62.19
2018-09-18T21:51:39.104Z,62.21
2018-09-18T21:54:07.776Z,61.84
2018-09-18T21:56:36.430Z,61.68
2018-09-18T21:59:05.450Z,62.45
2018-09-18T22:01:34.299Z,62.61
2018-09-18T22:04:03.101Z,62.78
2018-09-18T22:06:32.003Z,62.94
2018-09-18T22:09:00.724Z,63.25
2018-09-18T22:11:29.717Z,62.83
2018-09-18T22:13:58.473Z,63.29
2018-09-18T22:16:27.579Z,62.90
2018-09-18T22:18:56.547Z,64.02
2018-09-18T22:21:25.495Z,64.25
2018-09-18T22:23:54.293Z,64.66
2018-09-18T22:26:22.957Z,64.84
2018-09-18T22:28:51.664Z,64.66
2018-09-18T22:31:20.554Z,64.23
2018-09-18T22:33:49.391Z,63.75
2018-09-18T22:36:18.350Z,63.54
2018-09-18T22:38:47.301Z,64.10
2018-09-18T22:41:16.193Z,63.79
2018-09-18T22:43:45.366Z,63.89
2018-09-18T22:46:14.323Z,63.68
2018-09-18T22:48:43.465Z,64.14
2018-09-18T22:51:12.248Z,63.91
2018-09-18T22:53:41.183Z,64.59
2018-09-18T22:56:09.973Z,65.29
2018-09-18T22:58:38.863Z,66.33
2018-09-18T23:01:07.559Z,65.83
2018-09-18T23:03:36.417Z,65.16
2018-09-18T23:06:05.249Z,65.49
2018-09-18T23:08:34.261Z,66.04
2018-09-18T23:11:02.874Z,65.01
2018-09-18T23:13:31.915Z,64.97
2018-09-18T23:16:00.968Z,65.08
2018-09-18T23:18:29.888Z,65.45
2018-09-18T23:20:58.592Z,65.61
2018-09-18T23:23:27.486Z,65.49
2018-09-18T23:25:56.381Z,66.90
2018-09-18T23:28:24.973Z,67.04
2018-09-18T23:30:53.815Z,67.89
2018-09-18T23:33:22.534Z,68.26
2018-09-18T23:35:51.458Z,67.48
2018-09-18T23:38:20.673Z,67.73
2018-09-18T23:40:49.811Z,66.70
2018-09-18T23:43:18.882Z,67.14
2018-09-18T23:45:47.715Z,68.54
2018-09-18T23:48:16.439Z,68.44
2018-09-18T23:50:45.499Z,68.65
2018-09-18T23:53:14.231Z,69.19
2018-09-18T23:55:43.185Z,69.69
2018-09-18T23:58:11.821Z,69.71
